sensor_id;sensor_type;location;lat;lon;timestamp;P1;durP1;ratioP1;P2;durP2;ratioP2
23737;SDS011;12049;51.068;3.688;2022-08-01T00:00:35;9.73;;;4.85;;
23737;SDS011;12049;51.068;3.688;2022-08-01T00:03:01;10.05;;;4.30;;
23737;SDS011;12049;51.068;3.688;2022-08-01T00:05:26;9.55;;;4.43;;
23737;SDS011;12049;51.068;3.688;2022-08-01T00:07:52;10.35;;;5.38;;
23737;SDS011;12049;51.068;3.688;2022-08-01T00:10:18;13.77;;;6.60;;
23737;SDS011;12049;51.068;3.688;2022-08-01T00:12:44;16.73;;;6.47;;
23737;SDS011;12049;51.068;3.688;2022-08-01T00:15:12;14.63;;;6.10;;
23737;SDS011;12049;51.068;3.688;2022-08-01T00:17:39;9.75;;;5.68;;
23737;SDS011;12049;51.068;3.688;2022-08-01T00:20:06;14.65;;;6.70;;
23737;SDS011;12049;51.068;3.688;2022-08-01T00:22:33;17.25;;;7.53;;
23737;SDS011;12049;51.068;3.688;2022-08-01T00:24:59;18.95;;;8.00;;
23737;SDS011;12049;51.068;3.688;2022-08-01T00:27:25;17.10;;;7.60;;
23737;SDS011;12049;51.068;3.688;2022-08-01T00:29:51;23.08;;;9.18;;
23737;SDS011;12049;51.068;3.688;2022-08-01T00:32:16;14.75;;;8.00;;
23737;SDS011;12049;51.068;3.688;2022-08-01T00:34:42;17.33;;;8.50;;
23737;SDS011;12049;51.068;3.688;2022-08-01T00:37:07;19.08;;;9.00;;
23737;SDS011;12049;51.068;3.688;2022-08-01T00:39:33;20.80;;;9.63;;
23737;SDS011;12049;51.068;3.688;2022-08-01T00:41:59;20.33;;;9.73;;
23737;SDS011;12049;51.068;3.688;2022-08-01T00:44:30;23.23;;;9.38;;
23737;SDS011;12049;51.068;3.688;2022-08-01T00:46:56;17.23;;;8.38;;
23737;SDS011;12049;51.068;3.688;2022-08-01T00:49:21;19.95;;;9.35;;
23737;SDS011;12049;51.068;3.688;2022-08-01T00:51:47;20.73;;;9.48;;
23737;SDS011;12049;51.068;3.688;2022-08-01T00:54:13;20.65;;;9.85;;
23737;SDS011;12049;51.068;3.688;2022-08-01T00:56:40;21.50;;;9.88;;
23737;SDS011;12049;51.068;3.688;2022-08-01T00:59:06;24.00;;;10.55;;
23737;SDS011;12049;51.068;3.688;2022-08-01T01:01:33;20.55;;;9.90;;
23737;SDS011;12049;51.068;3.688;2022-08-01T01:03:59;26.17;;;10.82;;
23737;SDS011;12049;51.068;3.688;2022-08-01T01:17:37;28.58;;;12.77;;
23737;SDS011;12049;51.068;3.688;2022-08-01T01:20:06;25.05;;;12.63;;
23737;SDS011;12049;51.068;3.688;2022-08-01T01:25:32;27.20;;;12.98;;
23737;SDS011;12049;51.068;3.688;2022-08-01T01:29:13;24.27;;;13.13;;
23737;SDS011;12049;51.068;3.688;2022-08-01T01:31:24;25.80;;;13.85;;
23737;SDS011;12049;51.068;3.688;2022-08-01T01:33:52;30.83;;;14.85;;
23737;SDS011;12049;51.068;3.688;2022-08-01T01:36:20;27.23;;;14.40;;
23737;SDS011;12049;51.068;3.688;2022-08-01T01:38:46;29.80;;;13.73;;
23737;SDS011;12049;51.068;3.688;2022-08-01T01:41:14;21.50;;;10.77;;
23737;SDS011;12049;51.068;3.688;2022-08-01T01:43:42;25.63;;;9.23;;
23737;SDS011;12049;51.068;3.688;2022-08-01T01:46:10;17.15;;;8.80;;
23737;SDS011;12049;51.068;3.688;2022-08-01T01:48:37;18.42;;;8.02;;
23737;SDS011;12049;51.068;3.688;2022-08-01T01:51:05;15.23;;;7.40;;
23737;SDS011;12049;51.068;3.688;2022-08-01T01:53:31;17.98;;;7.07;;
23737;SDS011;12049;51.068;3.688;2022-08-01T01:55:59;11.15;;;5.95;;
23737;SDS011;12049;51.068;3.688;2022-08-01T01:58:27;14.82;;;5.80;;
23737;SDS011;12049;51.068;3.688;2022-08-01T02:00:54;16.85;;;6.50;;
23737;SDS011;12049;51.068;3.688;2022-08-01T02:03:21;16.25;;;6.35;;
23737;SDS011;12049;51.068;3.688;2022-08-01T02:05:49;11.90;;;5.80;;
23737;SDS011;12049;51.068;3.688;2022-08-01T02:08:18;13.43;;;5.43;;
23737;SDS011;12049;51.068;3.688;2022-08-01T02:10:45;11.88;;;5.28;;
23737;SDS011;12049;51.068;3.688;2022-08-01T02:13:31;12.07;;;5.47;;
23737;SDS011;12049;51.068;3.688;2022-08-01T02:15:59;12.68;;;5.28;;
23737;SDS011;12049;51.068;3.688;2022-08-01T02:18:26;11.57;;;5.43;;
23737;SDS011;12049;51.068;3.688;2022-08-01T02:20:52;10.18;;;5.22;;
23737;SDS011;12049;51.068;3.688;2022-08-01T02:23:19;13.43;;;4.47;;
23737;SDS011;12049;51.068;3.688;2022-08-01T02:25:48;9.23;;;4.65;;
23737;SDS011;12049;51.068;3.688;2022-08-01T02:28:17;10.75;;;4.75;;
23737;SDS011;12049;51.068;3.688;2022-08-01T02:30:53;9.20;;;4.35;;
23737;SDS011;12049;51.068;3.688;2022-08-01T02:33:24;9.25;;;4.10;;
23737;SDS011;12049;51.068;3.688;2022-08-01T02:35:58;7.95;;;4.00;;
23737;SDS011;12049;51.068;3.688;2022-08-01T02:38:27;7.68;;;3.83;;
23737;SDS011;12049;51.068;3.688;2022-08-01T02:40:57;6.75;;;3.92;;
23737;SDS011;12049;51.068;3.688;2022-08-01T02:43:28;9.05;;;3.58;;
23737;SDS011;12049;51.068;3.688;2022-08-01T02:45:58;7.65;;;2.95;;
23737;SDS011;12049;51.068;3.688;2022-08-01T02:48:26;5.78;;;2.80;;
23737;SDS011;12049;51.068;3.688;2022-08-01T02:50:55;8.05;;;3.05;;
23737;SDS011;12049;51.068;3.688;2022-08-01T02:53:24;5.20;;;2.83;;
23737;SDS011;12049;51.068;3.688;2022-08-01T02:55:52;6.03;;;2.58;;
23737;SDS011;12049;51.068;3.688;2022-08-01T02:58:19;5.82;;;2.75;;
23737;SDS011;12049;51.068;3.688;2022-08-01T03:00:48;5.05;;;2.38;;
23737;SDS011;12049;51.068;3.688;2022-08-01T03:03:15;7.00;;;2.78;;
23737;SDS011;12049;51.068;3.688;2022-08-01T03:05:42;3.55;;;2.22;;
23737;SDS011;12049;51.068;3.688;2022-08-01T03:08:09;3.70;;;2.42;;
23737;SDS011;12049;51.068;3.688;2022-08-01T03:10:36;5.15;;;2.40;;
23737;SDS011;12049;51.068;3.688;2022-08-01T03:13:05;4.88;;;2.13;;
23737;SDS011;12049;51.068;3.688;2022-08-01T03:15:35;4.55;;;2.30;;
23737;SDS011;12049;51.068;3.688;2022-08-01T03:18:04;3.67;;;2.00;;
23737;SDS011;12049;51.068;3.688;2022-08-01T03:20:33;4.45;;;2.08;;
23737;SDS011;12049;51.068;3.688;2022-08-01T03:23:00;4.82;;;2.28;;
23737;SDS011;12049;51.068;3.688;2022-08-01T03:25:29;5.28;;;2.03;;
23737;SDS011;12049;51.068;3.688;2022-08-01T03:27:58;4.40;;;2.30;;
23737;SDS011;12049;51.068;3.688;2022-08-01T03:30:26;4.45;;;2.40;;
23737;SDS011;12049;51.068;3.688;2022-08-01T03:32:53;7.15;;;2.35;;
23737;SDS011;12049;51.068;3.688;2022-08-01T03:35:19;4.68;;;2.42;;
23737;SDS011;12049;51.068;3.688;2022-08-01T03:37:47;4.63;;;2.35;;
23737;SDS011;12049;51.068;3.688;2022-08-01T03:40:18;6.68;;;2.40;;
23737;SDS011;12049;51.068;3.688;2022-08-01T03:42:49;6.37;;;2.50;;
23737;SDS011;12049;51.068;3.688;2022-08-01T03:45:19;4.00;;;2.20;;
23737;SDS011;12049;51.068;3.688;2022-08-01T03:47:52;5.35;;;2.40;;
23737;SDS011;12049;51.068;3.688;2022-08-01T03:50:30;2.88;;;2.20;;
23737;SDS011;12049;51.068;3.688;2022-08-01T03:52:59;3.40;;;2.20;;
23737;SDS011;12049;51.068;3.688;2022-08-01T03:55:26;3.17;;;2.25;;
23737;SDS011;12049;51.068;3.688;2022-08-01T03:57:54;4.50;;;2.40;;
23737;SDS011;12049;51.068;3.688;2022-08-01T04:00:21;5.78;;;2.90;;
23737;SDS011;12049;51.068;3.688;2022-08-01T04:02:48;4.53;;;2.53;;
23737;SDS011;12049;51.068;3.688;2022-08-01T04:05:15;5.10;;;2.65;;
23737;SDS011;12049;51.068;3.688;2022-08-01T04:07:45;5.03;;;2.50;;
23737;SDS011;12049;51.068;3.688;2022-08-01T04:10:12;3.42;;;2.22;;
23737;SDS011;12049;51.068;3.688;2022-08-01T04:12:38;3.15;;;2.42;;
23737;SDS011;12049;51.068;3.688;2022-08-01T04:15:04;5.57;;;2.83;;
23737;SDS011;12049;51.068;3.688;2022-08-01T04:17:30;3.78;;;2.55;;
23737;SDS011;12049;51.068;3.688;2022-08-01T04:19:56;4.53;;;2.60;;
23737;SDS011;12049;51.068;3.688;2022-08-01T04:22:21;4.80;;;2.75;;
23737;SDS011;12049;51.068;3.688;2022-08-01T04:24:47;5.72;;;2.80;;
23737;SDS011;12049;51.068;3.688;2022-08-01T04:27:21;4.32;;;2.60;;
23737;SDS011;12049;51.068;3.688;2022-08-01T04:29:49;6.90;;;2.72;;
23737;SDS011;12049;51.068;3.688;2022-08-01T04:32:18;6.15;;;2.85;;
23737;SDS011;12049;51.068;3.688;2022-08-01T04:34:46;4.70;;;2.58;;
23737;SDS011;12049;51.068;3.688;2022-08-01T04:37:14;5.35;;;2.80;;
23737;SDS011;12049;51.068;3.688;2022-08-01T04:39:41;3.88;;;2.22;;
23737;SDS011;12049;51.068;3.688;2022-08-01T04:42:09;6.10;;;2.58;;
23737;SDS011;12049;51.068;3.688;2022-08-01T04:44:36;3.67;;;2.60;;
23737;SDS011;12049;51.068;3.688;2022-08-01T04:47:02;4.55;;;2.90;;
23737;SDS011;12049;51.068;3.688;2022-08-01T04:49:36;4.32;;;2.58;;
23737;SDS011;12049;51.068;3.688;2022-08-01T04:52:02;3.83;;;2.70;;
23737;SDS011;12049;51.068;3.688;2022-08-01T04:54:31;4.60;;;2.70;;
23737;SDS011;12049;51.068;3.688;2022-08-01T04:56:58;4.40;;;2.83;;
23737;SDS011;12049;51.068;3.688;2022-08-01T04:59:25;4.68;;;2.72;;
23737;SDS011;12049;51.068;3.688;2022-08-01T05:02:07;5.70;;;3.33;;
23737;SDS011;12049;51.068;3.688;2022-08-01T05:04:40;7.55;;;2.90;;
23737;SDS011;12049;51.068;3.688;2022-08-01T05:07:07;3.65;;;2.80;;
23737;SDS011;12049;51.068;3.688;2022-08-01T05:09:34;4.75;;;4.25;;
23737;SDS011;12049;51.068;3.688;2022-08-01T05:12:04;5.57;;;3.13;;
23737;SDS011;12049;51.068;3.688;2022-08-01T05:14:31;4.82;;;3.17;;
23737;SDS011;12049;51.068;3.688;2022-08-01T05:16:58;7.55;;;2.90;;
23737;SDS011;12049;51.068;3.688;2022-08-01T05:19:28;4.47;;;2.60;;
23737;SDS011;12049;51.068;3.688;2022-08-01T05:21:55;3.95;;;2.80;;
23737;SDS011;12049;51.068;3.688;2022-08-01T05:24:21;5.10;;;2.80;;
23737;SDS011;12049;51.068;3.688;2022-08-01T05:26:47;4.40;;;3.00;;
23737;SDS011;12049;51.068;3.688;2022-08-01T05:29:14;7.38;;;2.85;;
23737;SDS011;12049;51.068;3.688;2022-08-01T05:31:40;6.60;;;3.00;;
23737;SDS011;12049;51.068;3.688;2022-08-01T05:34:06;4.45;;;3.05;;
23737;SDS011;12049;51.068;3.688;2022-08-01T05:36:31;5.70;;;2.90;;
23737;SDS011;12049;51.068;3.688;2022-08-01T05:38:57;4.13;;;2.60;;
23737;SDS011;12049;51.068;3.688;2022-08-01T05:41:23;6.03;;;3.28;;
23737;SDS011;12049;51.068;3.688;2022-08-01T05:43:48;4.47;;;3.10;;
23737;SDS011;12049;51.068;3.688;2022-08-01T05:46:14;3.47;;;2.83;;
23737;SDS011;12049;51.068;3.688;2022-08-01T05:48:40;6.35;;;3.10;;
23737;SDS011;12049;51.068;3.688;2022-08-01T05:51:05;3.60;;;2.80;;
23737;SDS011;12049;51.068;3.688;2022-08-01T05:53:31;5.70;;;2.85;;
23737;SDS011;12049;51.068;3.688;2022-08-01T05:55:59;5.45;;;2.92;;
23737;SDS011;12049;51.068;3.688;2022-08-01T05:58:25;4.32;;;3.10;;
23737;SDS011;12049;51.068;3.688;2022-08-01T06:00:51;5.20;;;3.00;;
23737;SDS011;12049;51.068;3.688;2022-08-01T06:03:17;5.63;;;3.30;;
23737;SDS011;12049;51.068;3.688;2022-08-01T06:05:43;5.75;;;2.97;;
23737;SDS011;12049;51.068;3.688;2022-08-01T06:08:08;6.32;;;2.92;;
23737;SDS011;12049;51.068;3.688;2022-08-01T06:10:34;2.88;;;2.50;;
23737;SDS011;12049;51.068;3.688;2022-08-01T06:13:00;5.20;;;2.60;;
23737;SDS011;12049;51.068;3.688;2022-08-01T06:15:28;3.35;;;2.13;;
23737;SDS011;12049;51.068;3.688;2022-08-01T06:17:54;4.50;;;2.08;;
23737;SDS011;12049;51.068;3.688;2022-08-01T06:20:20;5.97;;;2.13;;
23737;SDS011;12049;51.068;3.688;2022-08-01T06:22:46;5.68;;;2.03;;
23737;SDS011;12049;51.068;3.688;2022-08-01T06:25:11;3.25;;;1.73;;
23737;SDS011;12049;51.068;3.688;2022-08-01T06:27:37;3.63;;;1.88;;
23737;SDS011;12049;51.068;3.688;2022-08-01T06:30:03;3.25;;;1.98;;
23737;SDS011;12049;51.068;3.688;2022-08-01T06:32:30;3.80;;;1.90;;
23737;SDS011;12049;51.068;3.688;2022-08-01T06:34:56;2.75;;;1.80;;
23737;SDS011;12049;51.068;3.688;2022-08-01T06:37:22;4.60;;;2.00;;
23737;SDS011;12049;51.068;3.688;2022-08-01T06:39:48;4.93;;;2.00;;
23737;SDS011;12049;51.068;3.688;2022-08-01T06:42:14;4.90;;;1.90;;
23737;SDS011;12049;51.068;3.688;2022-08-01T06:44:40;3.95;;;2.00;;
23737;SDS011;12049;51.068;3.688;2022-08-01T06:47:06;3.75;;;1.90;;
23737;SDS011;12049;51.068;3.688;2022-08-01T06:49:32;5.63;;;2.05;;
23737;SDS011;12049;51.068;3.688;2022-08-01T06:51:57;2.55;;;1.80;;
23737;SDS011;12049;51.068;3.688;2022-08-01T06:54:23;3.28;;;1.80;;
23737;SDS011;12049;51.068;3.688;2022-08-01T06:56:48;2.47;;;1.77;;
23737;SDS011;12049;51.068;3.688;2022-08-01T06:59:14;2.85;;;1.70;;
23737;SDS011;12049;51.068;3.688;2022-08-01T07:01:40;4.03;;;1.63;;
23737;SDS011;12049;51.068;3.688;2022-08-01T07:04:06;3.72;;;1.58;;
23737;SDS011;12049;51.068;3.688;2022-08-01T07:06:35;2.75;;;1.50;;
23737;SDS011;12049;51.068;3.688;2022-08-01T07:09:00;4.20;;;1.60;;
23737;SDS011;12049;51.068;3.688;2022-08-01T07:11:27;3.22;;;1.75;;
23737;SDS011;12049;51.068;3.688;2022-08-01T07:13:52;3.65;;;1.50;;
23737;SDS011;12049;51.068;3.688;2022-08-01T07:16:18;4.07;;;1.45;;
23737;SDS011;12049;51.068;3.688;2022-08-01T07:18:44;3.20;;;1.20;;
23737;SDS011;12049;51.068;3.688;2022-08-01T07:21:09;3.22;;;1.38;;
23737;SDS011;12049;51.068;3.688;2022-08-01T07:23:35;2.05;;;1.10;;
23737;SDS011;12049;51.068;3.688;2022-08-01T07:26:02;3.42;;;1.30;;
23737;SDS011;12049;51.068;3.688;2022-08-01T07:28:29;3.55;;;1.40;;
23737;SDS011;12049;51.068;3.688;2022-08-01T07:30:55;3.88;;;1.30;;
23737;SDS011;12049;51.068;3.688;2022-08-01T07:33:21;3.42;;;1.20;;
23737;SDS011;12049;51.068;3.688;2022-08-01T07:35:47;4.55;;;1.30;;
23737;SDS011;12049;51.068;3.688;2022-08-01T07:38:13;2.03;;;1.10;;
23737;SDS011;12049;51.068;3.688;2022-08-01T07:40:41;2.60;;;1.15;;
23737;SDS011;12049;51.068;3.688;2022-08-01T07:43:07;2.78;;;1.23;;
23737;SDS011;12049;51.068;3.688;2022-08-01T07:45:33;1.40;;;1.02;;
23737;SDS011;12049;51.068;3.688;2022-08-01T07:48:03;2.58;;;1.10;;
23737;SDS011;12049;51.068;3.688;2022-08-01T07:50:32;3.17;;;1.20;;
23737;SDS011;12049;51.068;3.688;2022-08-01T07:52:58;2.05;;;1.25;;
23737;SDS011;12049;51.068;3.688;2022-08-01T07:55:24;1.35;;;1.00;;
23737;SDS011;12049;51.068;3.688;2022-08-01T07:57:50;1.85;;;1.02;;
23737;SDS011;12049;51.068;3.688;2022-08-01T08:00:16;2.10;;;1.10;;
23737;SDS011;12049;51.068;3.688;2022-08-01T08:02:42;2.15;;;1.10;;
23737;SDS011;12049;51.068;3.688;2022-08-01T08:05:09;1.88;;;1.40;;
23737;SDS011;12049;51.068;3.688;2022-08-01T08:07:34;3.05;;;2.20;;
23737;SDS011;12049;51.068;3.688;2022-08-01T08:10:00;2.60;;;2.08;;
23737;SDS011;12049;51.068;3.688;2022-08-01T08:12:27;9.80;;;2.72;;
23737;SDS011;12049;51.068;3.688;2022-08-01T08:14:52;2.80;;;2.00;;
23737;SDS011;12049;51.068;3.688;2022-08-01T08:17:18;1.40;;;1.30;;
23737;SDS011;12049;51.068;3.688;2022-08-01T08:19:44;2.13;;;1.50;;
23737;SDS011;12049;51.068;3.688;2022-08-01T08:22:09;2.65;;;1.38;;
23737;SDS011;12049;51.068;3.688;2022-08-01T08:24:36;3.03;;;1.50;;
23737;SDS011;12049;51.068;3.688;2022-08-01T08:27:02;2.03;;;1.58;;
23737;SDS011;12049;51.068;3.688;2022-08-01T08:29:29;2.00;;;1.20;;
23737;SDS011;12049;51.068;3.688;2022-08-01T08:31:57;2.83;;;1.30;;
23737;SDS011;12049;51.068;3.688;2022-08-01T08:34:24;3.67;;;1.08;;
23737;SDS011;12049;51.068;3.688;2022-08-01T08:36:50;3.13;;;1.05;;
23737;SDS011;12049;51.068;3.688;2022-08-01T08:39:16;1.75;;;0.93;;
23737;SDS011;12049;51.068;3.688;2022-08-01T08:41:42;1.35;;;1.00;;
23737;SDS011;12049;51.068;3.688;2022-08-01T08:44:08;1.15;;;0.90;;
23737;SDS011;12049;51.068;3.688;2022-08-01T08:46:39;1.63;;;0.93;;
23737;SDS011;12049;51.068;3.688;2022-08-01T08:49:06;2.20;;;0.80;;
23737;SDS011;12049;51.068;3.688;2022-08-01T08:51:33;2.55;;;0.90;;
23737;SDS011;12049;51.068;3.688;2022-08-01T08:54:02;4.05;;;1.00;;
23737;SDS011;12049;51.068;3.688;2022-08-01T08:56:29;2.78;;;1.00;;
23737;SDS011;12049;51.068;3.688;2022-08-01T08:58:59;2.08;;;0.90;;
23737;SDS011;12049;51.068;3.688;2022-08-01T09:01:26;1.55;;;0.90;;
23737;SDS011;12049;51.068;3.688;2022-08-01T09:03:52;1.55;;;0.90;;
23737;SDS011;12049;51.068;3.688;2022-08-01T09:06:18;1.73;;;0.90;;
23737;SDS011;12049;51.068;3.688;2022-08-01T09:08:44;2.15;;;1.05;;
23737;SDS011;12049;51.068;3.688;2022-08-01T09:11:10;4.18;;;1.17;;
23737;SDS011;12049;51.068;3.688;2022-08-01T09:13:36;1.35;;;0.90;;
23737;SDS011;12049;51.068;3.688;2022-08-01T09:16:02;2.25;;;1.02;;
23737;SDS011;12049;51.068;3.688;2022-08-01T09:18:34;2.45;;;0.98;;
23737;SDS011;12049;51.068;3.688;2022-08-01T09:21:08;1.48;;;1.10;;
23737;SDS011;12049;51.068;3.688;2022-08-01T09:26:04;2.72;;;1.00;;
23737;SDS011;12049;51.068;3.688;2022-08-01T09:28:34;1.85;;;1.13;;
23737;SDS011;12049;51.068;3.688;2022-08-01T09:31:08;3.88;;;1.48;;
23737;SDS011;12049;51.068;3.688;2022-08-01T09:33:48;2.03;;;1.00;;
23737;SDS011;12049;51.068;3.688;2022-08-01T09:36:27;2.08;;;0.95;;
23737;SDS011;12049;51.068;3.688;2022-08-01T09:39:22;0.88;;;0.80;;
23737;SDS011;12049;51.068;3.688;2022-08-01T09:41:49;1.00;;;0.90;;
23737;SDS011;12049;51.068;3.688;2022-08-01T09:44:16;2.22;;;1.00;;
23737;SDS011;12049;51.068;3.688;2022-08-01T09:46:49;2.75;;;1.20;;
23737;SDS011;12049;51.068;3.688;2022-08-01T09:49:15;3.00;;;1.00;;
23737;SDS011;12049;51.068;3.688;2022-08-01T09:51:53;4.07;;;1.50;;
23737;SDS011;12049;51.068;3.688;2022-08-01T09:54:32;4.07;;;1.25;;
23737;SDS011;12049;51.068;3.688;2022-08-01T09:59:37;1.73;;;1.20;;
23737;SDS011;12049;51.068;3.688;2022-08-01T10:02:07;2.13;;;1.10;;
23737;SDS011;12049;51.068;3.688;2022-08-01T10:04:34;3.30;;;1.48;;
23737;SDS011;12049;51.068;3.688;2022-08-01T10:07:03;3.42;;;1.20;;
23737;SDS011;12049;51.068;3.688;2022-08-01T10:09:31;3.53;;;1.20;;
23737;SDS011;12049;51.068;3.688;2022-08-01T10:12:04;3.03;;;1.08;;
23737;SDS011;12049;51.068;3.688;2022-08-01T10:14:30;3.33;;;1.23;;
23737;SDS011;12049;51.068;3.688;2022-08-01T10:16:59;3.17;;;1.30;;
23737;SDS011;12049;51.068;3.688;2022-08-01T10:19:26;2.15;;;1.20;;
23737;SDS011;12049;51.068;3.688;2022-08-01T10:21:53;6.78;;;1.60;;
23737;SDS011;12049;51.068;3.688;2022-08-01T10:24:21;2.58;;;1.30;;
23737;SDS011;12049;51.068;3.688;2022-08-01T10:26:47;2.80;;;1.30;;
23737;SDS011;12049;51.068;3.688;2022-08-01T10:29:17;2.25;;;1.20;;
23737;SDS011;12049;51.068;3.688;2022-08-01T10:31:45;3.10;;;1.20;;
23737;SDS011;12049;51.068;3.688;2022-08-01T10:34:11;3.72;;;1.77;;
23737;SDS011;12049;51.068;3.688;2022-08-01T10:36:41;3.15;;;1.33;;
23737;SDS011;12049;51.068;3.688;2022-08-01T10:39:09;7.20;;;1.60;;
23737;SDS011;12049;51.068;3.688;2022-08-01T10:41:35;2.72;;;1.40;;
23737;SDS011;12049;51.068;3.688;2022-08-01T10:44:02;3.53;;;1.40;;
23737;SDS011;12049;51.068;3.688;2022-08-01T10:46:29;2.25;;;1.30;;
23737;SDS011;12049;51.068;3.688;2022-08-01T10:49:00;3.45;;;1.40;;
23737;SDS011;12049;51.068;3.688;2022-08-01T10:51:31;2.85;;;1.30;;
23737;SDS011;12049;51.068;3.688;2022-08-01T10:54:02;2.53;;;1.50;;
23737;SDS011;12049;51.068;3.688;2022-08-01T10:56:47;2.38;;;1.20;;
23737;SDS011;12049;51.068;3.688;2022-08-01T10:59:14;4.68;;;1.63;;
23737;SDS011;12049;51.068;3.688;2022-08-01T11:01:54;2.67;;;1.50;;
23737;SDS011;12049;51.068;3.688;2022-08-01T11:05:11;4.32;;;1.33;;
23737;SDS011;12049;51.068;3.688;2022-08-01T11:07:23;1.77;;;1.23;;
23737;SDS011;12049;51.068;3.688;2022-08-01T11:10:04;4.33;;;1.60;;
23737;SDS011;12049;51.068;3.688;2022-08-01T11:12:39;3.10;;;1.50;;
23737;SDS011;12049;51.068;3.688;2022-08-01T11:17:36;3.53;;;1.60;;
23737;SDS011;12049;51.068;3.688;2022-08-01T11:20:04;2.53;;;1.40;;
23737;SDS011;12049;51.068;3.688;2022-08-01T11:22:32;2.95;;;1.55;;
23737;SDS011;12049;51.068;3.688;2022-08-01T11:25:23;2.25;;;1.30;;
23737;SDS011;12049;51.068;3.688;2022-08-01T11:28:06;2.05;;;1.40;;
23737;SDS011;12049;51.068;3.688;2022-08-01T11:30:51;4.50;;;1.50;;
23737;SDS011;12049;51.068;3.688;2022-08-01T11:38:37;2.30;;;1.30;;
23737;SDS011;12049;51.068;3.688;2022-08-01T11:44:02;4.60;;;1.67;;
23737;SDS011;12049;51.068;3.688;2022-08-01T11:46:49;4.90;;;1.67;;
23737;SDS011;12049;51.068;3.688;2022-08-01T11:49:48;2.28;;;1.40;;
23737;SDS011;12049;51.068;3.688;2022-08-01T11:54:52;1.83;;;1.40;;
23737;SDS011;12049;51.068;3.688;2022-08-01T11:57:20;4.18;;;1.45;;
23737;SDS011;12049;51.068;3.688;2022-08-01T11:59:47;2.13;;;1.45;;
23737;SDS011;12049;51.068;3.688;2022-08-01T12:07:20;3.97;;;1.30;;
23737;SDS011;12049;51.068;3.688;2022-08-01T12:09:46;3.10;;;1.30;;
23737;SDS011;12049;51.068;3.688;2022-08-01T12:12:16;2.00;;;1.30;;
23737;SDS011;12049;51.068;3.688;2022-08-01T12:14:42;2.75;;;1.35;;
23737;SDS011;12049;51.068;3.688;2022-08-01T12:17:09;1.90;;;1.35;;
23737;SDS011;12049;51.068;3.688;2022-08-01T12:19:35;3.33;;;1.30;;
23737;SDS011;12049;51.068;3.688;2022-08-01T12:22:08;3.90;;;1.35;;
23737;SDS011;12049;51.068;3.688;2022-08-01T12:24:36;10.13;;;1.98;;
23737;SDS011;12049;51.068;3.688;2022-08-01T12:27:03;4.57;;;1.23;;
23737;SDS011;12049;51.068;3.688;2022-08-01T12:32:01;2.45;;;1.25;;
23737;SDS011;12049;51.068;3.688;2022-08-01T12:34:28;3.10;;;1.38;;
23737;SDS011;12049;51.068;3.688;2022-08-01T12:36:58;2.90;;;1.55;;
23737;SDS011;12049;51.068;3.688;2022-08-01T12:39:30;4.25;;;1.40;;
23737;SDS011;12049;51.068;3.688;2022-08-01T12:41:57;8.63;;;1.65;;
23737;SDS011;12049;51.068;3.688;2022-08-01T12:44:22;1.83;;;1.38;;
23737;SDS011;12049;51.068;3.688;2022-08-01T12:46:48;3.95;;;1.25;;
23737;SDS011;12049;51.068;3.688;2022-08-01T12:49:14;4.90;;;1.40;;
23737;SDS011;12049;51.068;3.688;2022-08-01T12:51:40;4.60;;;1.60;;
23737;SDS011;12049;51.068;3.688;2022-08-01T12:54:06;5.05;;;1.70;;
23737;SDS011;12049;51.068;3.688;2022-08-01T12:56:35;4.93;;;1.70;;
23737;SDS011;12049;51.068;3.688;2022-08-01T12:59:01;4.25;;;1.50;;
23737;SDS011;12049;51.068;3.688;2022-08-01T13:01:44;2.38;;;1.50;;
23737;SDS011;12049;51.068;3.688;2022-08-01T13:04:10;4.43;;;1.90;;
23737;SDS011;12049;51.068;3.688;2022-08-01T13:06:35;3.75;;;1.85;;
23737;SDS011;12049;51.068;3.688;2022-08-01T13:09:08;2.80;;;1.60;;
23737;SDS011;12049;51.068;3.688;2022-08-01T13:11:35;3.25;;;1.77;;
23737;SDS011;12049;51.068;3.688;2022-08-01T13:14:01;4.35;;;2.00;;
23737;SDS011;12049;51.068;3.688;2022-08-01T13:16:27;3.45;;;1.60;;
23737;SDS011;12049;51.068;3.688;2022-08-01T13:18:53;3.03;;;1.52;;
23737;SDS011;12049;51.068;3.688;2022-08-01T13:21:22;2.85;;;1.45;;
23737;SDS011;12049;51.068;3.688;2022-08-01T13:24:09;5.05;;;1.60;;
23737;SDS011;12049;51.068;3.688;2022-08-01T13:29:20;3.30;;;1.25;;
23737;SDS011;12049;51.068;3.688;2022-08-01T13:31:48;2.45;;;1.20;;
23737;SDS011;12049;51.068;3.688;2022-08-01T13:34:14;2.53;;;1.20;;
23737;SDS011;12049;51.068;3.688;2022-08-01T13:36:40;3.22;;;1.30;;
23737;SDS011;12049;51.068;3.688;2022-08-01T13:39:07;2.65;;;1.00;;
23737;SDS011;12049;51.068;3.688;2022-08-01T13:41:51;4.43;;;1.30;;
23737;SDS011;12049;51.068;3.688;2022-08-01T13:44:17;3.53;;;1.17;;
23737;SDS011;12049;51.068;3.688;2022-08-01T13:46:43;2.58;;;1.00;;
23737;SDS011;12049;51.068;3.688;2022-08-01T13:49:10;2.63;;;1.25;;
23737;SDS011;12049;51.068;3.688;2022-08-01T13:51:36;3.83;;;1.25;;
23737;SDS011;12049;51.068;3.688;2022-08-01T13:54:03;4.18;;;1.15;;
23737;SDS011;12049;51.068;3.688;2022-08-01T13:56:29;2.25;;;1.10;;
23737;SDS011;12049;51.068;3.688;2022-08-01T13:58:55;3.75;;;1.17;;
23737;SDS011;12049;51.068;3.688;2022-08-01T14:01:22;2.20;;;1.17;;
23737;SDS011;12049;51.068;3.688;2022-08-01T14:03:48;1.73;;;1.10;;
23737;SDS011;12049;51.068;3.688;2022-08-01T14:06:15;2.83;;;1.17;;
23737;SDS011;12049;51.068;3.688;2022-08-01T14:08:42;2.05;;;1.20;;
23737;SDS011;12049;51.068;3.688;2022-08-01T14:11:08;1.73;;;0.98;;
23737;SDS011;12049;51.068;3.688;2022-08-01T14:13:34;2.78;;;1.10;;
23737;SDS011;12049;51.068;3.688;2022-08-01T14:16:02;2.13;;;1.17;;
23737;SDS011;12049;51.068;3.688;2022-08-01T14:18:27;1.98;;;1.00;;
23737;SDS011;12049;51.068;3.688;2022-08-01T14:20:53;2.72;;;1.13;;
23737;SDS011;12049;51.068;3.688;2022-08-01T14:23:19;2.78;;;1.20;;
23737;SDS011;12049;51.068;3.688;2022-08-01T14:25:44;1.27;;;1.05;;
23737;SDS011;12049;51.068;3.688;2022-08-01T14:28:10;2.90;;;1.15;;
23737;SDS011;12049;51.068;3.688;2022-08-01T14:30:36;1.92;;;1.00;;
23737;SDS011;12049;51.068;3.688;2022-08-01T14:33:02;1.67;;;1.13;;
23737;SDS011;12049;51.068;3.688;2022-08-01T14:35:28;5.70;;;1.27;;
23737;SDS011;12049;51.068;3.688;2022-08-01T14:37:53;2.70;;;1.30;;
23737;SDS011;12049;51.068;3.688;2022-08-01T14:40:19;3.83;;;1.40;;
23737;SDS011;12049;51.068;3.688;2022-08-01T14:42:44;2.08;;;1.15;;
23737;SDS011;12049;51.068;3.688;2022-08-01T14:45:11;5.10;;;1.15;;
23737;SDS011;12049;51.068;3.688;2022-08-01T14:47:37;3.40;;;0.98;;
23737;SDS011;12049;51.068;3.688;2022-08-01T14:50:05;3.10;;;1.13;;
23737;SDS011;12049;51.068;3.688;2022-08-01T14:52:33;3.20;;;0.93;;
23737;SDS011;12049;51.068;3.688;2022-08-01T14:54:59;4.50;;;1.40;;
23737;SDS011;12049;51.068;3.688;2022-08-01T14:57:25;3.33;;;1.10;;
23737;SDS011;12049;51.068;3.688;2022-08-01T14:59:51;2.83;;;1.02;;
23737;SDS011;12049;51.068;3.688;2022-08-01T15:02:17;2.50;;;1.20;;
23737;SDS011;12049;51.068;3.688;2022-08-01T15:04:43;3.75;;;1.10;;
23737;SDS011;12049;51.068;3.688;2022-08-01T15:07:10;3.83;;;1.10;;
23737;SDS011;12049;51.068;3.688;2022-08-01T15:09:36;1.35;;;1.00;;
23737;SDS011;12049;51.068;3.688;2022-08-01T15:12:02;1.05;;;0.90;;
23737;SDS011;12049;51.068;3.688;2022-08-01T15:14:27;3.33;;;1.02;;
23737;SDS011;12049;51.068;3.688;2022-08-01T15:17:11;2.40;;;1.10;;
23737;SDS011;12049;51.068;3.688;2022-08-01T15:19:37;2.03;;;1.02;;
23737;SDS011;12049;51.068;3.688;2022-08-01T15:22:03;3.10;;;1.23;;
23737;SDS011;12049;51.068;3.688;2022-08-01T15:24:30;1.33;;;0.98;;
23737;SDS011;12049;51.068;3.688;2022-08-01T15:26:55;2.22;;;1.10;;
23737;SDS011;12049;51.068;3.688;2022-08-01T15:29:21;5.68;;;1.13;;
23737;SDS011;12049;51.068;3.688;2022-08-01T15:31:47;2.80;;;1.00;;
23737;SDS011;12049;51.068;3.688;2022-08-01T15:34:14;2.15;;;1.00;;